Aérodrome :
LOGIN :

S'inscrire | Disclaimer

   EN    FR    IT 

 










Légende :    VFR   VFR Marginal   IFR   IFR Intensif   IFR Très Intensif
Visi : 
Plafond : 
>= 8 km
>= 3000ft
5 à 8 km
1000 à 3000 ft
1500m à 5 km
500 à 1000 ft
800 à 1500m
200 à 500 ft
< 800m
< 200 ft
Symboles :   Orages  Brouillard  Fortes neiges  Fortes précipitations  Vent > 20 kt
SIGMETs :   Divers  Orages  Givrage  Turbulence  Onde Orograph.  Cendres Volcan.







- Altitude de l'aérodrome : 466 ft


LHPA - Pápa

DERNIER METAR :
  • 221445Z 32004KT 9999 FEW047 23/11 Q1017 NOSIG RMK BLU

METARs EXPIRÉS :
  • 221415Z 33004KT 9999 FEW047 23/12 Q1017 NOSIG RMK BLU
  • 221345Z 28006KT 240V340 9999 FEW047 23/13 Q1017 NOSIG RMK BLU
  • 221315Z 34004KT 9999 FEW047 23/14 Q1017 NOSIG RMK BLU
  • 221245Z 30004KT 9999 FEW047 22/12 Q1018 NOSIG RMK BLU
  • 221215Z 32004KT 9999 FEW047 22/12 Q1018 NOSIG RMK BLU

TAF TAF LHPA
Valide du 22 à 12h jusqu'au 23 à 12h UTC


221115Z 2212/2312 36006KT CAVOK
TEMPO 2212/2218 9999 SCT040
BECMG 2216/2219 VRB03KT
TEMPO 2302/2312 8000 -SHRA SCT040TCU BKN083
Pas de NOTAMs connus pour ce terrain.



MET'MAP, la Météo Aéronautique d'un coup d'oeil ! - Copyright ORBIFLY Décembre 2007 - Disclaimer

ORBIFLY MET'MAP TEAM :

Programmation & Développement : Alexandra Zaïnal
Conception & Développement : Baudouin d'Aumeries
Co-Programmation & Développement : Marc-Olivier Méhu
Soutien technique & logistique : Manuel Goepfert

Contact : metmap@orbifly.com




SOURCES & CREDITS :

   NOAA